Time;durP1;ratioP1;P1;durP2;ratioP2;P2;SDS_P1;SDS_P2;PMS_P1;PMS_P2;Temp;Humidity;BMP_temperature;BMP_pressure;BME280_temperature;BME280_humidity;BME280_pressure;Samples;Min_cycle;Max_cycle;Signal;HPM_P1;HPM_P2
2024/03/05 00:02:06;;;;;;;64.97;31.60;;;;;;;5.34;100.00;99629.13;1447738;89;22244;-74
2024/03/05 00:04:32;;;;;;;58.47;30.47;;;;;;;5.34;100.00;99629.13;1460697;89;21449;-73
2024/03/05 00:06:58;;;;;;;63.07;31.33;;;;;;;5.27;100.00;99617.52;1458938;88;22225;-74
2024/03/05 00:09:25;;;;;;;74.63;34.90;;;;;;;5.29;100.00;99627.38;1464461;88;21323;-73
2024/03/05 00:11:52;;;;;;;71.80;33.50;;;;;;;5.27;100.00;99625.88;1459983;89;22125;-74
2024/03/05 00:14:19;;;;;;;83.30;34.67;;;;;;;5.25;100.00;99627.80;1460089;88;22264;-74
2024/03/05 00:16:47;;;;;;;68.37;32.13;;;;;;;5.22;100.00;99627.58;1463174;89;22081;-74
2024/03/05 00:19:14;;;;;;;72.40;33.53;;;;;;;5.19;100.00;99629.16;1455954;89;22161;-75
2024/03/05 00:21:40;;;;;;;75.47;33.77;;;;;;;5.14;100.00;99630.03;1459703;88;22074;-74
2024/03/05 00:24:06;;;;;;;63.40;30.67;;;;;;;5.12;100.00;99622.77;1467691;88;22953;-75
2024/03/05 00:26:32;;;;;;;67.00;31.20;;;;;;;5.11;100.00;99622.42;1462309;88;22152;-74
2024/03/05 00:29:02;;;;;;;78.00;31.63;;;;;;;5.09;100.00;99623.03;1461048;88;22042;-73
2024/03/05 00:31:28;;;;;;;66.00;30.63;;;;;;;5.07;100.00;99619.25;1456628;89;23115;-74
2024/03/05 00:33:55;;;;;;;67.03;31.60;;;;;;;5.05;100.00;99615.09;1463106;89;22087;-74
2024/03/05 00:36:24;;;;;;;72.80;31.43;;;;;;;5.01;100.00;99622.89;1458707;89;22160;-74
2024/03/05 00:38:50;;;;;;;69.87;32.30;;;;;;;4.98;100.00;99618.24;1460568;89;22190;-74
2024/03/05 00:41:18;;;;;;;77.50;36.57;;;;;;;4.94;100.00;99613.37;1464909;88;22050;-74
2024/03/05 00:43:45;;;;;;;77.90;34.43;;;;;;;4.92;100.00;99612.67;1469089;88;21337;-74
2024/03/05 00:46:11;;;;;;;76.53;34.83;;;;;;;4.91;100.00;99617.58;1463914;88;22038;-74
2024/03/05 00:48:37;;;;;;;76.27;35.27;;;;;;;4.88;100.00;99618.67;1460210;89;22083;-74
2024/03/05 00:51:03;;;;;;;68.93;34.27;;;;;;;4.85;100.00;99618.94;1465011;89;22017;-74
2024/03/05 00:53:30;;;;;;;69.60;32.57;;;;;;;4.81;100.00;99625.89;1458131;88;22287;-74
2024/03/05 00:55:56;;;;;;;72.07;33.13;;;;;;;4.79;100.00;99617.32;1462217;89;22131;-74
2024/03/05 00:58:22;;;;;;;76.23;34.73;;;;;;;4.73;100.00;99617.36;1465693;89;22080;-74
2024/03/05 01:00:48;;;;;;;72.40;36.33;;;;;;;4.69;100.00;99623.80;1458335;89;22791;-74
2024/03/05 01:03:15;;;;;;;67.20;33.83;;;;;;;4.64;100.00;99618.97;1461159;88;22172;-74
2024/03/05 01:05:42;;;;;;;59.13;33.17;;;;;;;4.62;100.00;99613.50;1456105;89;21316;-74
2024/03/05 01:08:08;;;;;;;68.23;33.00;;;;;;;4.62;100.00;99623.98;1459289;89;22292;-74
2024/03/05 01:10:34;;;;;;;65.67;33.03;;;;;;;4.61;100.00;99618.41;1469423;88;22153;-74
2024/03/05 01:13:00;;;;;;;68.07;31.20;;;;;;;4.59;100.00;99614.59;1460313;89;22322;-74
2024/03/05 01:15:26;;;;;;;71.67;32.67;;;;;;;4.58;100.00;99619.97;1464764;88;22086;-74
2024/03/05 01:17:53;;;;;;;62.23;32.53;;;;;;;4.58;100.00;99623.91;1456267;89;21330;-73
2024/03/05 01:20:20;;;;;;;55.17;29.27;;;;;;;4.56;100.00;99627.13;1465171;89;22071;-74
2024/03/05 01:22:47;;;;;;;62.97;33.10;;;;;;;4.56;100.00;99624.50;1465245;89;22102;-74
2024/03/05 01:25:16;;;;;;;58.87;30.60;;;;;;;4.52;100.00;99623.45;1471250;88;23561;-75
2024/03/05 01:27:41;;;;;;;62.03;31.20;;;;;;;4.50;100.00;99618.81;1463144;88;22243;-75
2024/03/05 01:30:13;;;;;;;59.37;30.53;;;;;;;4.48;100.00;99624.65;1462891;88;22584;-75
2024/03/05 01:32:41;;;;;;;58.70;31.83;;;;;;;4.45;100.00;99622.28;1451888;88;22088;-75
2024/03/05 01:35:11;;;;;;;62.07;31.27;;;;;;;4.40;100.00;99624.48;1464616;88;22192;-75
2024/03/05 01:37:42;;;;;;;66.43;31.57;;;;;;;4.36;100.00;99622.23;1457306;88;22361;-75
2024/03/05 01:40:11;;;;;;;71.53;31.73;;;;;;;4.34;100.00;99624.14;1460051;89;21773;-75
2024/03/05 01:42:37;;;;;;;58.80;31.40;;;;;;;4.33;100.00;99623.80;1462444;88;21434;-75
2024/03/05 01:45:04;;;;;;;60.23;29.77;;;;;;;4.24;100.00;99613.61;1460626;89;22124;-75
2024/03/05 01:47:34;;;;;;;64.80;29.33;;;;;;;4.30;100.00;99634.05;1461312;88;22236;-75
2024/03/05 01:50:03;;;;;;;56.50;29.00;;;;;;;4.25;100.00;99626.56;1457422;89;23109;-75
2024/03/05 01:52:31;;;;;;;60.97;30.10;;;;;;;4.22;100.00;99635.16;1454557;88;23169;-75
2024/03/05 01:55:05;;;;;;;66.60;33.07;;;;;;;4.20;100.00;99634.44;1457839;88;22199;-75
2024/03/05 01:57:30;;;;;;;52.00;29.33;;;;;;;4.19;100.00;99631.00;1460737;88;23011;-75
2024/03/05 01:59:56;;;;;;;69.03;30.40;;;;;;;4.17;100.00;99632.08;1462829;89;22246;-75
2024/03/05 02:02:23;;;;;;;60.27;32.53;;;;;;;4.12;100.00;99625.92;1461096;89;22085;-75
2024/03/05 02:04:52;;;;;;;56.37;30.67;;;;;;;4.12;100.00;99625.92;1466019;88;22093;-75
2024/03/05 02:07:22;;;;;;;59.30;29.70;;;;;;;4.11;100.00;99635.20;1468002;88;22021;-75
2024/03/05 02:09:48;;;;;;;56.23;30.57;;;;;;;4.05;100.00;99632.12;1465689;89;23198;-75
2024/03/05 02:12:14;;;;;;;63.80;32.20;;;;;;;4.05;100.00;99632.12;1465276;88;23062;-75
2024/03/05 02:14:40;;;;;;;67.07;34.17;;;;;;;4.03;100.00;99630.13;1469276;88;22657;-75
2024/03/05 02:17:08;;;;;;;59.57;30.03;;;;;;;4.03;100.00;99634.06;1462925;88;22321;-75
2024/03/05 02:19:34;;;;;;;55.93;30.43;;;;;;;4.04;100.00;99629.64;1461881;88;22030;-75
2024/03/05 02:22:02;;;;;;;61.90;29.37;;;;;;;4.04;100.00;99629.64;1465654;89;21859;-74
2024/03/05 02:24:30;;;;;;;58.37;29.83;;;;;;;4.04;100.00;99632.27;1451162;89;22827;-75
2024/03/05 02:26:56;;;;;;;57.43;29.30;;;;;;;4.03;100.00;99627.52;1455664;88;22967;-74
2024/03/05 02:29:24;;;;;;;58.63;30.43;;;;;;;4.04;100.00;99631.78;1462737;88;22243;-74
2024/03/05 02:31:51;;;;;;;57.47;29.40;;;;;;;3.99;100.00;99626.56;1460189;89;22052;-75
2024/03/05 02:34:18;;;;;;;64.97;28.80;;;;;;;3.99;100.00;99626.56;1451778;89;22094;-75
2024/03/05 02:36:44;;;;;;;53.97;27.87;;;;;;;4.01;100.00;99629.41;1465065;88;22162;-75
2024/03/05 02:39:10;;;;;;;57.47;29.80;;;;;;;3.96;100.00;99626.34;1470723;89;22108;-75
2024/03/05 02:41:37;;;;;;;57.80;31.23;;;;;;;3.96;100.00;99626.34;1463628;88;23151;-75
2024/03/05 02:44:06;;;;;;;59.07;30.23;;;;;;;3.99;100.00;99639.66;1458071;88;22530;-75
2024/03/05 02:46:33;;;;;;;57.10;28.97;;;;;;;3.99;100.00;99652.27;1469154;88;21802;-75
2024/03/05 02:48:59;;;;;;;53.97;28.33;;;;;;;3.97;100.00;99658.13;1467255;89;21954;-75
2024/03/05 02:51:28;;;;;;;66.23;30.13;;;;;;;3.97;100.00;99658.13;1465774;89;22065;-75
2024/03/05 02:53:55;;;;;;;57.47;31.27;;;;;;;3.95;100.00;99654.79;1460723;88;22279;-75
2024/03/05 02:56:21;;;;;;;55.53;30.47;;;;;;;3.88;100.00;99660.63;1464028;88;22405;-75
2024/03/05 02:58:47;;;;;;;58.03;29.47;;;;;;;3.88;100.00;99660.63;1457714;89;22162;-75
2024/03/05 03:01:13;;;;;;;49.83;30.00;;;;;;;3.83;100.00;99662.33;1451584;89;22261;-77
2024/03/05 03:03:39;;;;;;;49.80;28.10;;;;;;;3.75;100.00;99651.64;1443053;90;22959;-77
2024/03/05 03:06:07;;;;;;;52.17;30.20;;;;;;;3.75;100.00;99651.64;1444090;89;22102;-77
2024/03/05 03:08:33;;;;;;;59.20;32.00;;;;;;;3.80;100.00;99665.20;1457269;89;22081;-75
2024/03/05 03:10:59;;;;;;;59.97;30.20;;;;;;;3.78;100.00;99660.07;1457135;89;22054;-76
2024/03/05 03:13:26;;;;;;;57.83;27.83;;;;;;;3.76;100.00;99662.45;1457163;90;22129;-76
2024/03/05 03:15:52;;;;;;;65.30;31.50;;;;;;;3.75;100.00;99658.19;1457832;89;21962;-76
2024/03/05 03:18:20;;;;;;;51.97;29.50;;;;;;;3.70;100.00;99666.39;1455943;89;21817;-76
2024/03/05 03:20:46;;;;;;;53.80;29.83;;;;;;;3.70;100.00;99666.39;1454793;89;22020;-76
2024/03/05 03:23:12;;;;;;;61.70;29.47;;;;;;;3.72;100.00;99676.27;1462063;89;21824;-76
2024/03/05 03:25:38;;;;;;;70.63;30.37;;;;;;;3.74;100.00;99681.36;1453840;90;22388;-76
2024/03/05 03:28:05;;;;;;;76.67;31.87;;;;;;;3.75;100.00;99694.34;1457123;89;22245;-75
2024/03/05 03:30:31;;;;;;;52.40;29.07;;;;;;;3.75;100.00;99694.34;1453953;89;21744;-76
2024/03/05 03:32:57;;;;;;;52.60;29.50;;;;;;;3.73;100.00;99701.95;1451633;90;21846;-75
2024/03/05 03:35:23;;;;;;;53.53;28.93;;;;;;;3.77;100.00;99692.45;1457243;89;22095;-75
2024/03/05 03:37:51;;;;;;;48.90;26.33;;;;;;;3.77;100.00;99692.45;1446018;89;22108;-75
2024/03/05 03:40:21;;;;;;;54.87;30.13;;;;;;;3.80;100.00;99697.91;1452651;90;22689;-75
2024/03/05 03:42:46;;;;;;;53.80;29.40;;;;;;;3.84;100.00;99701.94;1449512;89;22345;-74
2024/03/05 03:45:15;;;;;;;67.30;33.17;;;;;;;3.84;100.00;99701.94;1460083;89;22797;-75
2024/03/05 03:47:42;;;;;;;64.77;36.27;;;;;;;3.80;100.00;99697.91;1448105;90;22138;-75
2024/03/05 03:50:09;;;;;;;69.33;34.47;;;;;;;3.74;100.00;99706.23;1451639;90;22080;-75
2024/03/05 03:52:38;;;;;;;61.73;31.73;;;;;;;3.77;100.00;99713.84;1448186;89;22029;-75
2024/03/05 03:55:05;;;;;;;63.73;36.23;;;;;;;3.77;100.00;99713.84;1445998;90;22156;-75
2024/03/05 03:57:34;;;;;;;57.33;35.10;;;;;;;3.79;100.00;99710.14;1452879;89;22102;-75
2024/03/05 04:00:07;;;;;;;63.57;36.20;;;;;;;3.81;100.00;99712.66;1463459;89;21890;-74
2024/03/05 04:02:30;;;;;;;69.90;35.87;;;;;;;3.81;100.00;99712.66;1458256;89;23077;-74
2024/03/05 04:04:57;;;;;;;64.70;35.60;;;;;;;3.79;100.00;99703.60;1461258;89;22875;-75
2024/03/05 04:07:25;;;;;;;60.50;36.10;;;;;;;3.88;100.00;99714.30;1459246;89;22169;-74
2024/03/05 04:09:51;;;;;;;60.70;34.57;;;;;;;3.88;100.00;99714.30;1467502;88;22022;-73
2024/03/05 04:12:17;;;;;;;61.27;35.70;;;;;;;3.94;100.00;99710.73;1457649;88;22227;-74
2024/03/05 04:14:43;;;;;;;63.10;35.10;;;;;;;3.94;100.00;99710.73;1458684;88;22834;-74
2024/03/05 04:17:09;;;;;;;61.73;31.87;;;;;;;3.96;100.00;99717.97;1461294;89;22063;-74
2024/03/05 04:19:35;;;;;;;66.97;37.53;;;;;;;3.98;100.00;99716.07;1467685;88;21412;-74
2024/03/05 04:22:02;;;;;;;64.03;36.87;;;;;;;3.99;100.00;99714.28;1461065;88;21434;-74
2024/03/05 04:24:30;;;;;;;66.07;37.77;;;;;;;3.94;100.00;99702.88;1459731;89;22139;-74
2024/03/05 04:27:02;;;;;;;62.77;35.50;;;;;;;3.91;100.00;99703.58;1463771;88;22103;-74
2024/03/05 04:29:29;;;;;;;82.27;42.07;;;;;;;3.98;100.00;99713.45;1464559;88;23485;-74
2024/03/05 04:32:05;;;;;;;67.50;35.67;;;;;;;3.98;100.00;99712.14;1460979;89;22115;-74
2024/03/05 04:34:23;;;;;;;57.40;32.78;;;;;;;3.95;100.00;99702.41;1458848;89;22161;-73
2024/03/05 04:36:51;;;;;;;57.20;33.83;;;;;;;3.99;100.00;99713.80;1462244;89;21390;-74
2024/03/05 04:39:18;;;;;;;64.23;33.87;;;;;;;4.00;100.00;99719.41;1464002;88;22162;-74
2024/03/05 04:41:44;;;;;;;65.07;36.10;;;;;;;4.01;100.00;99721.06;1469204;89;22101;-74
2024/03/05 04:44:11;;;;;;;77.27;38.80;;;;;;;3.94;100.00;99725.14;1460418;89;22117;-75
2024/03/05 04:46:37;;;;;;;59.90;35.80;;;;;;;3.94;100.00;99725.14;1462311;89;21826;-74
2024/03/05 04:49:06;;;;;;;63.47;36.90;;;;;;;3.90;100.00;99723.70;1463626;88;23009;-74
2024/03/05 04:51:31;;;;;;;67.07;35.60;;;;;;;3.87;100.00;99726.56;1457289;88;22101;-76
2024/03/05 04:53:57;;;;;;;69.57;39.57;;;;;;;3.86;100.00;99732.77;1467359;88;22777;-76
2024/03/05 04:56:23;;;;;;;62.37;37.53;;;;;;;3.83;100.00;99733.01;1470291;88;21397;-76
2024/03/05 04:58:49;;;;;;;70.33;35.43;;;;;;;3.81;100.00;99725.27;1449977;88;22206;-77
2024/03/05 05:01:15;;;;;;;78.43;42.43;;;;;;;3.77;100.00;99723.00;1455594;89;22909;-76
2024/03/05 05:03:46;;;;;;;65.27;37.90;;;;;;;3.71;100.00;99718.25;1457910;89;21847;-75
2024/03/05 05:06:10;;;;;;;67.70;37.57;;;;;;;3.71;100.00;99718.25;1456402;89;21881;-75
2024/03/05 05:08:37;;;;;;;73.93;41.67;;;;;;;3.67;100.00;99710.30;1445223;89;23121;-76
2024/03/05 05:11:04;;;;;;;70.80;38.67;;;;;;;3.68;100.00;99713.26;1454590;89;22151;-77
2024/03/05 05:13:30;;;;;;;71.73;40.90;;;;;;;3.63;100.00;99731.12;1446852;89;23095;-75
2024/03/05 05:15:58;;;;;;;75.23;39.10;;;;;;;3.63;100.00;99725.90;1443319;89;22122;-75
2024/03/05 05:18:24;;;;;;;72.83;36.50;;;;;;;3.61;100.00;99735.98;1455526;89;21853;-76
2024/03/05 05:20:51;;;;;;;84.40;37.87;;;;;;;3.57;100.00;99739.81;1452509;89;22113;-75
2024/03/05 05:23:17;;;;;;;66.23;35.03;;;;;;;3.57;100.00;99739.81;1453502;89;21845;-75
2024/03/05 05:25:44;;;;;;;71.27;37.37;;;;;;;3.60;100.00;99743.50;1455994;90;21763;-75
2024/03/05 05:28:11;;;;;;;61.27;34.20;;;;;;;3.64;100.00;99747.17;1449806;89;21795;-75
2024/03/05 05:30:37;;;;;;;62.60;36.63;;;;;;;3.64;100.00;99747.17;1453709;89;22089;-75
2024/03/05 05:33:05;;;;;;;68.10;35.67;;;;;;;3.65;100.00;99737.05;1457692;89;21869;-75
2024/03/05 05:35:31;;;;;;;70.57;35.83;;;;;;;3.65;100.00;99737.05;1451548;89;22710;-75
2024/03/05 05:37:58;;;;;;;60.90;33.90;;;;;;;3.68;100.00;99736.81;1450538;89;21767;-75
2024/03/05 05:40:24;;;;;;;63.30;37.93;;;;;;;3.74;100.00;99737.63;1449642;89;22231;-75
2024/03/05 05:42:50;;;;;;;62.70;34.80;;;;;;;3.74;100.00;99737.63;1454820;90;22081;-74
2024/03/05 05:45:17;;;;;;;64.43;34.37;;;;;;;3.90;100.00;99739.41;1453414;90;21353;-74
2024/03/05 05:47:56;;;;;;;66.87;36.17;;;;;;;3.90;100.00;99739.41;1454698;89;22028;-74
2024/03/05 05:50:18;;;;;;;62.27;36.33;;;;;;;4.06;100.00;99733.31;1456865;89;22165;-75
2024/03/05 05:52:48;;;;;;;69.63;36.50;;;;;;;4.06;100.00;99733.31;1457078;90;22254;-75
2024/03/05 05:55:17;;;;;;;65.63;37.90;;;;;;;4.15;100.00;99736.16;1448991;89;22029;-75
2024/03/05 05:57:46;;;;;;;63.90;34.93;;;;;;;4.24;100.00;99740.16;1450876;89;22992;-75
2024/03/05 06:00:24;;;;;;;66.57;33.87;;;;;;;4.32;100.00;99744.80;1452126;89;22296;-74
2024/03/05 06:02:43;;;;;;;72.72;35.58;;;;;;;4.43;100.00;99744.76;1448058;89;22272;-75
2024/03/05 06:05:09;;;;;;;68.37;35.07;;;;;;;4.51;100.00;99742.31;1448122;89;21339;-75
2024/03/05 06:07:35;;;;;;;65.13;38.20;;;;;;;4.60;100.00;99741.22;1453491;89;22189;-75
2024/03/05 06:10:01;;;;;;;65.43;35.77;;;;;;;4.69;100.00;99739.14;1455429;89;22978;-75
2024/03/05 06:12:27;;;;;;;60.97;35.73;;;;;;;4.79;100.00;99732.19;1457744;89;21375;-75
2024/03/05 06:14:53;;;;;;;68.43;35.20;;;;;;;4.86;100.00;99735.98;1453082;89;23142;-75
2024/03/05 06:17:19;;;;;;;59.87;33.73;;;;;;;4.94;100.00;99744.02;1438869;90;21405;-75
2024/03/05 06:19:45;;;;;;;70.77;37.57;;;;;;;5.01;100.00;99742.22;1454975;89;22246;-75
2024/03/05 06:22:11;;;;;;;66.63;37.80;;;;;;;5.09;100.00;99741.06;1451139;89;21434;-75
2024/03/05 06:24:38;;;;;;;70.50;39.03;;;;;;;5.19;100.00;99751.15;1459552;90;21368;-76
2024/03/05 06:27:06;;;;;;;77.47;45.03;;;;;;;5.29;100.00;99745.45;1447511;90;21376;-75
2024/03/05 06:29:32;;;;;;;68.67;45.87;;;;;;;5.37;100.00;99743.02;1458029;89;21630;-75
2024/03/05 06:31:58;;;;;;;82.23;45.50;;;;;;;5.47;100.00;99747.47;1449347;89;22189;-76
2024/03/05 06:34:25;;;;;;;70.47;43.63;;;;;;;5.60;100.00;99744.16;1462688;89;21464;-75
2024/03/05 06:36:53;;;;;;;75.90;41.03;;;;;;;5.74;100.00;99745.10;1452669;89;21375;-75
2024/03/05 06:39:25;;;;;;;62.50;39.07;;;;;;;5.86;100.00;99749.28;1456517;90;21501;-75
2024/03/05 06:41:52;;;;;;;76.17;44.60;;;;;;;6.03;100.00;99753.58;1450049;89;21442;-75
2024/03/05 06:44:21;;;;;;;64.97;40.23;;;;;;;6.20;100.00;99747.66;1457487;89;22233;-75
2024/03/05 06:46:48;;;;;;;71.17;37.73;;;;;;;6.38;100.00;99752.25;1447972;89;21507;-75
2024/03/05 06:49:15;;;;;;;67.10;40.40;;;;;;;6.57;100.00;99758.84;1452861;89;21346;-75
2024/03/05 06:56:39;;;;;;;75.63;44.33;;;;;;;6.75;100.00;99762.42;1452726;90;22358;-75
2024/03/05 06:56:57;;;;;;;70.27;38.20;;;;;;;7.12;100.00;99763.50;1450245;90;21369;-75
2024/03/05 06:59:25;;;;;;;64.60;40.27;;;;;;;7.31;100.00;99764.78;1453922;89;22513;-75
2024/03/05 07:01:51;;;;;;;65.67;38.83;;;;;;;7.46;100.00;99766.46;1459742;89;21486;-75
2024/03/05 07:04:17;;;;;;;58.60;36.93;;;;;;;7.61;100.00;99766.33;1456546;90;21397;-75
2024/03/05 07:06:44;;;;;;;62.67;35.67;;;;;;;7.78;100.00;99770.50;1456234;89;21368;-75
2024/03/05 07:09:11;;;;;;;70.50;39.27;;;;;;;7.93;100.00;99776.93;1456303;90;21383;-75
2024/03/05 07:11:37;;;;;;;66.00;38.37;;;;;;;8.09;100.00;99774.50;1452998;89;21420;-75
2024/03/05 07:14:03;;;;;;;75.23;43.77;;;;;;;8.24;100.00;99773.99;1440486;90;21360;-75
2024/03/05 07:16:31;;;;;;;68.60;42.17;;;;;;;8.39;100.00;99775.66;1450539;90;21441;-75
2024/03/05 07:18:57;;;;;;;66.77;40.20;;;;;;;8.55;100.00;99775.83;1457196;90;21516;-75
2024/03/05 07:21:25;;;;;;;70.27;39.27;;;;;;;8.66;100.00;99774.29;1453611;89;21544;-75
2024/03/05 07:23:52;;;;;;;63.93;35.90;;;;;;;8.79;100.00;99775.21;1456705;90;21596;-75
2024/03/05 07:26:18;;;;;;;62.57;39.30;;;;;;;8.94;100.00;99776.31;1452474;89;21483;-75
2024/03/05 07:28:45;;;;;;;67.43;40.60;;;;;;;9.11;100.00;99779.09;1447592;89;21590;-74
2024/03/05 07:31:13;;;;;;;76.47;44.67;;;;;;;9.25;100.00;99777.21;1452304;90;21352;-75
2024/03/05 07:33:39;;;;;;;76.70;43.47;;;;;;;9.40;100.00;99778.29;1449228;90;21389;-75
2024/03/05 07:36:06;;;;;;;70.20;41.13;;;;;;;9.56;100.00;99779.39;1452391;89;21449;-75
2024/03/05 07:38:33;;;;;;;66.37;40.30;;;;;;;9.74;100.00;99777.98;1453507;90;21368;-76
2024/03/05 07:40:59;;;;;;;64.53;40.33;;;;;;;9.89;100.00;99782.50;1450294;90;22263;-75
2024/03/05 07:43:25;;;;;;;67.90;40.90;;;;;;;10.05;100.00;99781.75;1451354;89;21397;-75
2024/03/05 07:45:52;;;;;;;69.17;39.07;;;;;;;10.20;100.00;99775.85;1452318;90;21472;-75
2024/03/05 07:48:18;;;;;;;72.23;38.90;;;;;;;10.36;100.00;99778.58;1452962;90;21383;-75
2024/03/05 07:50:44;;;;;;;58.00;35.70;;;;;;;10.51;100.00;99778.77;1450310;89;21375;-75
2024/03/05 07:53:11;;;;;;;56.53;34.63;;;;;;;10.66;100.00;99777.12;1450646;89;21538;-75
2024/03/05 07:55:39;;;;;;;54.70;31.57;;;;;;;10.83;100.00;99781.94;1458300;89;21486;-75
2024/03/05 07:58:10;;;;;;;50.00;30.50;;;;;;;10.99;100.00;99776.66;1451695;90;22417;-75
2024/03/05 08:00:35;;;;;;;41.60;27.73;;;;;;;11.16;100.00;99780.09;1457358;89;22586;-75
2024/03/05 08:03:03;;;;;;;41.30;27.00;;;;;;;11.29;100.00;99776.45;1462533;88;21404;-75
2024/03/05 08:05:29;;;;;;;46.77;28.40;;;;;;;11.47;100.00;99784.69;1461413;88;21374;-74
2024/03/05 08:07:59;;;;;;;44.00;25.50;;;;;;;11.63;100.00;99782.52;1457242;89;21552;-74
2024/03/05 08:10:26;;;;;;;38.43;24.37;;;;;;;11.81;100.00;99780.96;1384853;89;21419;-75
2024/03/05 08:12:55;;;;;;;45.33;25.33;;;;;;;11.94;100.00;99779.96;1387093;88;21212;-74
2024/03/05 08:15:26;;;;;;;43.60;24.87;;;;;;;12.10;100.00;99779.86;1389988;88;21309;-74
2024/03/05 08:17:53;;;;;;;41.43;23.27;;;;;;;12.26;100.00;99784.78;1545854;88;21140;-74
2024/03/05 08:20:26;;;;;;;34.47;21.93;;;;;;;12.41;100.00;99781.70;1386911;89;21243;-75
2024/03/05 08:22:56;;;;;;;36.80;19.43;;;;;;;12.53;100.00;99783.45;1386747;89;21439;-76
2024/03/05 08:25:23;;;;;;;;;;;;;;;12.63;100.00;99784.06;1458038;89;21374;-75
2024/03/05 08:27:59;;;;;;;37.00;22.53;;;;;;;12.75;100.00;99788.45;1462330;88;20321;-76
2024/03/05 08:30:31;;;;;;;41.87;21.33;;;;;;;12.84;100.00;99787.38;1460025;88;21316;-75
2024/03/05 08:32:58;;;;;;;34.20;19.83;;;;;;;12.99;100.00;99788.75;1458966;88;21449;-75
2024/03/05 08:35:25;;;;;;;34.37;19.70;;;;;;;13.16;100.00;99789.44;1465542;89;21881;-75
2024/03/05 08:37:51;;;;;;;28.33;17.87;;;;;;;13.35;100.00;99783.66;1457420;88;22862;-76
2024/03/05 08:40:20;;;;;;;29.27;17.70;;;;;;;13.54;100.00;99788.92;1461452;88;21331;-75
2024/03/05 08:42:49;;;;;;;26.10;18.63;;;;;;;13.73;100.00;99787.58;1459245;88;21784;-75
2024/03/05 08:45:22;;;;;;;33.47;18.90;;;;;;;13.89;100.00;99783.38;1463045;89;21427;-75
2024/03/05 08:47:53;;;;;;;30.20;17.07;;;;;;;14.00;100.00;99788.23;1545827;89;21332;-75
2024/03/05 08:50:19;;;;;;;;;;;;;;;14.09;100.00;99786.28;1385510;90;22270;-75
2024/03/05 08:52:46;;;;;;;32.23;19.93;;;;;;;14.23;100.00;99788.61;1393090;88;20339;-76
2024/03/05 08:55:15;;;;;;;26.70;17.13;;;;;;;14.35;99.11;99795.59;1386902;89;21564;-76
2024/03/05 08:57:42;;;;;;;34.47;18.80;;;;;;;14.40;96.49;99795.36;1384347;89;22254;-75
2024/03/05 09:00:20;;;;;;;31.00;18.30;;;;;;;14.56;97.68;99793.02;1388660;89;21346;-75
2024/03/05 09:02:46;;;;;;;24.63;15.90;;;;;;;14.62;92.41;99792.77;1535391;89;21192;-75
2024/03/05 09:05:13;;;;;;;22.67;13.83;;;;;;;14.80;93.24;99789.66;1378686;90;21405;-75
2024/03/05 09:07:42;;;;;;;20.20;14.63;;;;;;;14.85;89.52;99793.41;1378254;90;22101;-74
2024/03/05 09:10:10;;;;;;;27.90;16.33;;;;;;;15.01;91.05;99793.63;1376979;90;22354;-76
2024/03/05 09:12:37;;;;;;;22.30;15.10;;;;;;;15.14;89.20;99788.94;1376894;90;22367;-75
2024/03/05 09:15:05;;;;;;;19.43;12.80;;;;;;;15.24;87.77;99793.41;1379136;89;21346;-75
2024/03/05 09:17:33;;;;;;;21.50;14.83;;;;;;;15.38;88.78;99788.19;1376957;89;21266;-75
2024/03/05 09:20:11;;;;;;;20.30;13.63;;;;;;;15.55;88.64;99788.20;1377636;89;21258;-75
2024/03/05 09:22:29;;;;;;;20.03;12.70;;;;;;;15.75;88.81;99787.84;1527172;89;21250;-76
2024/03/05 09:24:55;;;;;;;17.20;11.30;;;;;;;15.96;86.01;99788.25;1379632;89;21397;-76
2024/03/05 09:27:21;;;;;;;14.70;9.63;;;;;;;16.04;80.50;99789.94;1379956;89;21251;-75
2024/03/05 09:29:47;;;;;;;15.83;9.57;;;;;;;16.16;76.16;99788.34;1379778;90;21561;-76
2024/03/05 09:32:13;;;;;;;21.63;10.70;;;;;;;16.23;75.77;99790.53;1385304;90;21353;-75
2024/03/05 09:34:40;;;;;;;18.70;10.10;;;;;;;16.41;74.98;99797.16;1379327;89;22197;-75
2024/03/05 09:37:06;;;;;;;16.40;10.57;;;;;;;16.83;77.15;99797.89;1379853;90;21243;-76
2024/03/05 09:39:35;;;;;;;22.00;12.73;;;;;;;17.24;72.95;99789.70;1378651;89;21433;-75
2024/03/05 09:42:04;;;;;;;17.43;10.87;;;;;;;17.64;71.09;99786.16;1377185;90;21406;-76
2024/03/05 09:44:30;;;;;;;20.20;10.32;;;;;;;18.24;71.43;99790.80;1377325;89;22243;-76
2024/03/05 09:46:57;;;;;;;18.62;12.37;;;;;;;18.76;70.33;99792.09;1379256;90;21295;-76
2024/03/05 09:49:23;;;;;;;17.90;11.35;;;;;;;19.16;66.51;99792.61;1378658;90;21244;-77
2024/03/05 09:51:50;;;;;;;18.70;11.38;;;;;;;19.26;68.40;99791.61;1385354;90;22078;-75
2024/03/05 09:54:17;;;;;;;15.50;8.60;;;;;;;19.17;67.13;99794.27;1377788;90;21339;-75
2024/03/05 09:56:45;;;;;;;13.55;9.45;;;;;;;18.82;58.43;99797.42;1379627;90;21562;-75
2024/03/05 09:59:16;;;;;;;15.78;8.88;;;;;;;18.56;60.23;99799.72;1418527;90;21456;-76
2024/03/05 10:01:46;;;;;;;23.05;11.48;;;;;;;18.51;60.78;99798.72;1533117;89;22381;-75
2024/03/05 10:04:16;;;;;;;16.50;9.18;;;;;;;18.56;62.53;99801.56;1376264;90;21295;-76
2024/03/05 10:06:49;;;;;;;22.85;9.80;;;;;;;18.37;63.55;99804.14;1377351;89;22123;-75
2024/03/05 10:09:16;;;;;;;16.25;9.60;;;;;;;18.22;63.88;99802.27;1384783;90;21265;-74
2024/03/05 10:11:43;;;;;;;14.05;9.48;;;;;;;18.04;64.43;99807.79;1372060;90;22153;-75
2024/03/05 10:14:10;;;;;;;19.32;11.12;;;;;;;17.86;64.75;99806.28;1378752;89;21266;-75
2024/03/05 10:16:38;;;;;;;22.98;10.65;;;;;;;17.46;62.00;99809.00;1378186;90;22337;-76
2024/03/05 10:19:19;;;;;;;21.00;11.88;;;;;;;17.19;63.96;99809.54;1378276;90;21192;-75
2024/03/05 10:21:47;;;;;;;28.50;10.53;;;;;;;16.87;62.52;99808.50;1376632;89;22265;-74
2024/03/05 10:24:13;;;;;;;12.70;9.10;;;;;;;16.92;65.31;99807.38;1533291;90;21536;-75
2024/03/05 10:26:41;;;;;;;14.57;9.07;;;;;;;16.89;65.47;99806.45;1379411;90;21317;-75
2024/03/05 10:29:09;;;;;;;15.97;8.43;;;;;;;16.74;62.92;99803.91;1384140;90;21325;-75
2024/03/05 10:31:44;;;;;;;13.43;7.87;;;;;;;16.88;63.19;99806.12;1369980;90;21339;-74
2024/03/05 10:34:11;;;;;;;14.73;8.50;;;;;;;17.00;63.79;99803.14;1535306;90;21297;-75
2024/03/05 10:36:45;;;;;;;19.53;8.70;;;;;;;17.13;64.24;99798.33;1378844;90;21324;-74
2024/03/05 10:39:08;;;;;;;13.98;7.97;;;;;;;17.74;62.80;99798.05;1374371;89;21309;-75
2024/03/05 10:41:39;;;;;;;20.05;8.93;;;;;;;18.30;62.60;99795.33;1379392;89;21233;-75
2024/03/05 10:44:08;;;;;;;14.93;9.58;;;;;;;18.56;54.55;99790.34;1535427;89;21214;-75
2024/03/05 10:46:37;;;;;;;22.48;10.05;;;;;;;18.90;58.25;99793.14;1382491;90;21279;-75
2024/03/05 10:49:05;;;;;;;19.40;10.50;;;;;;;19.31;58.50;99787.75;1376710;90;21332;-75
2024/03/05 10:51:38;;;;;;;16.50;9.78;;;;;;;19.60;55.56;99788.91;1376936;90;21310;-75
2024/03/05 10:54:06;;;;;;;21.85;11.83;;;;;;;19.87;58.09;99783.28;1535567;89;21200;-75
2024/03/05 10:56:35;;;;;;;17.77;11.97;;;;;;;20.21;57.42;99783.72;1378083;89;21443;-75
2024/03/05 11:01:45;;;;;;;17.48;9.73;;;;;;;20.63;57.29;99780.59;1414091;89;22255;-75
2024/03/05 11:04:18;;;;;;;22.10;10.72;;;;;;;20.84;54.90;99775.73;1463023;88;21640;-75
2024/03/05 11:06:47;;;;;;;18.37;10.55;;;;;;;21.13;55.79;99771.33;1532375;89;22226;-75
2024/03/05 11:09:22;;;;;;;17.62;9.70;;;;;;;21.44;55.33;99768.86;1374584;90;21469;-75
2024/03/05 11:12:10;;;;;;;23.42;9.90;;;;;;;21.65;53.37;99774.69;1545876;88;21265;-75
2024/03/05 11:14:37;;;;;;;21.70;10.72;;;;;;;21.61;50.63;99771.13;1383804;90;21235;-75
2024/03/05 11:17:12;;;;;;;21.07;8.90;;;;;;;21.48;47.11;99765.97;1387275;89;22186;-75
2024/03/05 11:19:42;;;;;;;16.10;9.55;;;;;;;21.65;47.70;99766.61;1539347;88;21323;-75
2024/03/05 11:22:27;;;;;;;29.10;9.65;;;;;;;21.68;44.06;99760.75;1384835;90;21301;-75
2024/03/05 11:25:06;;;;;;;18.55;8.28;;;;;;;21.71;45.52;99758.39;1387302;88;21228;-74